aviador You're here:

CYRV Decoded Metar

REVELSTOKE AIRPO in BC, CANADA
Report Time2017-10-24 00:00:00
UTC Time2017-10-24 00:18:49
Flight Rules vfr VFR
WindVRB at 02 kt
Visibility9999 m
Phenomena:N/A
Clouds:Few 070 Hf
Broken 200 Hf
Expected CloudBase > 400 ft AGL from Temp-Dew spread
Ceiling20,000 ft
Temp07°C (ISA -5)
Dew Point06°C (93% RH)
AAT5.4°C
QNH1038 hPa
Density Alt131 ft
Elevation1,453 ft
Report Wrong Elevation
Raw Report
CYRV 240000Z AUTO VRB02KT 9SM FEW070 BKN200 07/06 A3065 RMK
SLP395=

Extra information for CYRV:More info

Metar Taf Metar & Taf Last 4 Metars F.Rules Stats Wind Profile Meteogram Temp Stats Airport Information Weather charts Add Link Nearby VenuesMetar ALERT Operation Metar Decoded Social comments